createdAt,value
2022-08-23T00:01:57.770Z,100376.72
2022-08-23T00:07:00.240Z,100383.38
2022-08-23T00:12:11.301Z,100424.88
2022-08-23T00:17:33.392Z,100394.84
2022-08-23T00:22:37.805Z,100436.16
2022-08-23T00:27:39.066Z,100424.19
2022-08-23T00:32:41.255Z,100424.94
2022-08-23T00:37:45.238Z,100412.41
2022-08-23T00:43:26.434Z,100377.06
2022-08-23T00:48:26.733Z,100411.19
2022-08-23T00:53:28.913Z,100403.84
2022-08-23T00:58:28.937Z,100389.03
2022-08-23T01:03:38.683Z,100400.19
2022-08-23T01:08:40.588Z,100381.97
2022-08-23T01:13:54.702Z,100389.22
2022-08-23T01:18:57.491Z,100408.00
2022-08-23T01:24:01.540Z,100400.38
2022-08-23T01:29:07.800Z,100402.78
2022-08-23T01:34:10.763Z,100391.13
2022-08-23T01:39:15.546Z,100399.50
2022-08-23T01:44:14.537Z,100391.97
2022-08-23T01:49:20.027Z,100421.34
2022-08-23T01:54:18.491Z,100393.06
2022-08-23T01:59:17.997Z,100412.84
2022-08-23T02:04:34.005Z,100392.75
2022-08-23T02:09:32.244Z,100413.44
2022-08-23T02:14:37.680Z,100418.75
2022-08-23T02:19:49.098Z,100401.84
2022-08-23T02:24:49.630Z,100430.94
2022-08-23T02:29:48.226Z,100412.31
2022-08-23T02:34:51.301Z,100441.88
2022-08-23T02:40:06.324Z,100434.00
2022-08-23T02:45:08.904Z,100453.31
2022-08-23T02:50:16.148Z,100459.06
2022-08-23T02:55:18.310Z,100451.53
2022-08-23T03:00:22.632Z,100468.16
2022-08-23T03:05:23.854Z,100475.19
2022-08-23T03:10:23.352Z,100462.69
2022-08-23T03:15:28.647Z,100455.44
2022-08-23T03:20:31.632Z,100464.59
2022-08-23T03:25:34.887Z,100479.94
2022-08-23T03:30:39.752Z,100500.56
2022-08-23T03:35:40.365Z,100482.66
2022-08-23T03:40:41.590Z,100505.09
2022-08-23T03:45:40.090Z,100511.06
2022-08-23T03:50:41.830Z,100502.13
2022-08-23T03:55:43.029Z,100517.97
2022-08-23T04:00:48.926Z,100530.13
2022-08-23T04:05:48.310Z,100513.53
2022-08-23T04:10:51.739Z,100509.50
2022-08-23T04:15:51.351Z,100529.19
2022-08-23T04:20:50.770Z,100508.41
2022-08-23T04:25:55.803Z,100493.38
2022-08-23T04:30:55.446Z,100540.97
2022-08-23T04:35:54.644Z,100494.56
2022-08-23T04:41:14.452Z,100527.59
2022-08-23T04:46:19.366Z,100488.81
2022-08-23T04:51:22.499Z,100485.81
2022-08-23T04:56:24.073Z,100509.31
2022-08-23T05:01:27.606Z,100492.66
2022-08-23T05:06:31.405Z,100499.84
2022-08-23T05:11:29.901Z,100534.53
2022-08-23T05:16:28.079Z,100488.84
2022-08-23T05:21:36.833Z,100505.94
2022-08-23T05:26:44.486Z,100523.56
2022-08-23T05:31:46.928Z,100518.00
2022-08-23T05:36:56.071Z,100512.31
2022-08-23T05:42:16.909Z,100520.31
2022-08-23T05:47:17.023Z,100535.53
2022-08-23T05:52:35.543Z,100534.59
2022-08-23T05:57:38.261Z,100519.25
2022-08-23T06:02:39.831Z,100509.06
2022-08-23T06:07:38.104Z,100523.66
2022-08-23T06:12:38.907Z,100523.19
2022-08-23T06:17:41.396Z,100538.72
2022-08-23T06:22:44.265Z,100558.97
2022-08-23T06:27:42.688Z,100539.19
2022-08-23T06:32:41.512Z,100527.63
2022-08-23T06:38:00.391Z,100559.34
2022-08-23T06:43:18.927Z,100532.88
2022-08-23T06:48:24.312Z,100538.34
2022-08-23T06:53:24.901Z,100547.16
2022-08-23T06:58:55.223Z,100561.56
2022-08-23T07:04:38.405Z,100538.31
2022-08-23T07:10:10.312Z,100575.53
2022-08-23T07:15:12.574Z,100557.91
2022-08-23T07:20:29.924Z,100568.13
2022-08-23T07:25:31.818Z,100559.88
2022-08-23T07:30:35.604Z,100559.31
2022-08-23T07:35:38.161Z,100568.94
2022-08-23T07:40:40.681Z,100585.19
2022-08-23T07:45:47.532Z,100560.34
2022-08-23T07:51:01.238Z,100595.78
2022-08-23T07:56:01.093Z,100575.81
2022-08-23T08:01:20.554Z,100583.00
2022-08-23T08:06:25.997Z,100554.19
2022-08-23T08:11:33.683Z,100559.50
2022-08-23T08:16:39.483Z,100566.00
2022-08-23T08:21:42.148Z,100544.31
2022-08-23T08:27:14.379Z,100549.75
2022-08-23T08:32:18.548Z,100584.88
2022-08-23T08:37:17.610Z,100581.31
2022-08-23T08:42:54.750Z,100587.00
2022-08-23T08:48:13.574Z,100567.53
2022-08-23T08:53:38.959Z,100566.72
2022-08-23T08:58:54.498Z,100556.00
2022-08-23T09:03:53.560Z,100561.56
2022-08-23T09:09:20.779Z,100562.66
2022-08-23T09:14:34.696Z,100583.00
2022-08-23T09:19:35.256Z,100560.03
2022-08-23T09:24:33.567Z,100561.34
2022-08-23T09:29:54.507Z,100562.75
2022-08-23T09:35:09.670Z,100562.13
2022-08-23T09:40:19.293Z,100562.41
2022-08-23T09:45:35.159Z,100557.06
2022-08-23T09:50:50.455Z,100542.34
2022-08-23T09:55:53.742Z,100535.16
2022-08-23T10:01:11.973Z,100529.47
2022-08-23T10:06:31.292Z,100539.84
2022-08-23T10:11:43.720Z,100500.34
2022-08-23T10:16:49.006Z,100530.66
2022-08-23T10:22:04.208Z,100518.06
2022-08-23T10:27:51.879Z,100538.28
2022-08-23T10:33:18.866Z,100515.47
2022-08-23T10:38:41.596Z,100534.81
2022-08-23T10:44:21.647Z,100543.72
2022-08-23T10:49:20.285Z,100541.38
2022-08-23T10:55:01.106Z,100528.88
2022-08-23T11:00:10.904Z,100548.88
2022-08-23T11:05:36.141Z,100522.03
2022-08-23T11:10:56.541Z,100526.34
2022-08-23T11:16:16.143Z,100528.81
2022-08-23T11:21:41.952Z,100514.91
2022-08-23T11:26:45.951Z,100542.59
2022-08-23T11:32:09.298Z,100541.31
2022-08-23T11:37:30.911Z,100516.03
2022-08-23T11:42:38.819Z,100530.25
2022-08-23T11:47:48.136Z,100490.31
2022-08-23T11:53:07.734Z,100529.38
2022-08-23T11:58:14.220Z,100482.56
2022-08-23T12:03:38.242Z,100485.25
2022-08-23T12:08:48.361Z,100514.94
2022-08-23T12:13:56.733Z,100499.94
2022-08-23T12:19:02.134Z,100480.50
2022-08-23T12:24:21.424Z,100459.25
2022-08-23T12:29:27.976Z,100470.03
2022-08-23T12:34:33.194Z,100483.41
2022-08-23T12:39:43.599Z,100441.66
2022-08-23T12:44:46.950Z,100470.25
2022-08-23T12:50:01.830Z,100437.00
2022-08-23T12:55:06.438Z,100467.44
2022-08-23T13:00:19.060Z,100470.81
2022-08-23T13:05:24.001Z,100469.41
2022-08-23T13:10:22.198Z,100460.19
2022-08-23T13:16:02.916Z,100437.56
2022-08-23T13:21:39.581Z,100460.44
2022-08-23T13:26:47.257Z,100457.19
2022-08-23T13:32:12.667Z,100453.13
2022-08-23T13:37:24.247Z,100457.09
2022-08-23T13:42:51.282Z,100448.22
2022-08-23T13:47:54.698Z,100436.03
2022-08-23T13:53:13.865Z,100422.53
2022-08-23T13:58:27.609Z,100417.59
2022-08-23T14:03:26.888Z,100455.75
2022-08-23T14:08:25.848Z,100498.88
2022-08-23T14:13:25.194Z,100499.94
2022-08-23T14:24:08.403Z,100568.81
2022-08-23T14:29:06.747Z,100582.44
2022-08-23T14:34:12.180Z,100517.06
2022-08-23T14:39:16.632Z,100516.13
2022-08-23T14:44:16.530Z,100531.56
2022-08-23T14:49:20.674Z,100567.88
2022-08-23T14:54:23.189Z,100616.94
2022-08-23T14:59:23.370Z,100643.16
2022-08-23T15:04:34.361Z,100576.66
2022-08-23T15:09:42.281Z,100599.44
2022-08-23T15:14:43.977Z,100571.78
2022-08-23T15:19:45.631Z,100569.59
2022-08-23T15:24:48.115Z,100559.69
2022-08-23T15:29:52.197Z,100524.19
2022-08-23T15:34:51.051Z,100528.13
2022-08-23T15:39:50.460Z,100532.53
2022-08-23T15:44:53.296Z,100531.56
2022-08-23T15:49:54.056Z,100489.78
2022-08-23T15:54:57.087Z,100514.66
2022-08-23T15:59:55.975Z,100527.66
2022-08-23T16:04:57.224Z,100488.44
2022-08-23T16:09:55.287Z,100493.66
2022-08-23T16:14:57.237Z,100512.69
2022-08-23T16:19:59.376Z,100517.66
2022-08-23T16:24:57.565Z,100508.34
2022-08-23T16:29:59.331Z,100531.47
2022-08-23T16:34:57.211Z,100519.50
2022-08-23T16:39:59.792Z,100520.06
2022-08-23T16:45:09.140Z,100491.81
2022-08-23T16:50:11.326Z,100519.25
2022-08-23T16:55:17.494Z,100587.72
2022-08-23T17:00:15.985Z,100596.28
2022-08-23T17:05:19.433Z,100692.69
2022-08-23T17:10:18.339Z,100635.88
2022-08-23T17:15:22.588Z,100611.28
2022-08-23T17:20:23.519Z,100553.31
2022-08-23T17:25:24.373Z,100527.47
2022-08-23T17:30:24.040Z,100609.13
2022-08-23T17:35:26.513Z,100524.06
2022-08-23T17:40:43.559Z,100530.81
2022-08-23T17:45:46.685Z,100636.69
2022-08-23T17:50:46.371Z,100701.19
2022-08-23T17:55:45.006Z,100704.97
2022-08-23T18:00:43.599Z,100711.75
2022-08-23T18:05:45.660Z,100669.28
2022-08-23T18:10:50.660Z,100671.78
2022-08-23T18:15:55.427Z,100665.41
2022-08-23T18:20:57.109Z,100691.66
2022-08-23T18:26:33.593Z,100685.72
2022-08-23T18:31:37.214Z,100687.88
2022-08-23T18:36:36.435Z,100668.09
2022-08-23T18:41:38.206Z,100711.81
2022-08-23T18:46:40.447Z,100681.47
2022-08-23T18:51:44.640Z,100672.84
2022-08-23T18:56:54.535Z,100694.09
2022-08-23T19:01:57.583Z,100688.72
2022-08-23T19:06:55.354Z,100677.16
2022-08-23T19:11:56.574Z,100685.50
2022-08-23T19:16:55.616Z,100657.78
2022-08-23T19:21:58.689Z,100665.13
2022-08-23T19:26:59.216Z,100640.00
2022-08-23T19:31:57.185Z,100664.28
2022-08-23T19:37:01.390Z,100657.34
2022-08-23T19:41:59.421Z,100648.59
2022-08-23T19:46:58.966Z,100672.78
2022-08-23T19:51:59.786Z,100667.72
2022-08-23T19:56:59.850Z,100680.66
2022-08-23T20:01:59.403Z,100714.16
2022-08-23T20:07:01.131Z,100730.91
2022-08-23T20:12:01.091Z,100739.31
2022-08-23T20:16:59.848Z,100749.28
2022-08-23T20:22:19.406Z,100742.88
2022-08-23T20:27:28.885Z,100778.16
2022-08-23T20:32:31.363Z,100783.66
2022-08-23T20:37:30.116Z,100764.56
2022-08-23T20:42:29.824Z,100732.09
2022-08-23T20:47:28.250Z,100739.81
2022-08-23T20:52:29.704Z,100736.50
2022-08-23T20:57:31.863Z,100750.47
2022-08-23T21:02:38.844Z,100784.38
2022-08-23T21:07:39.807Z,100755.31
2022-08-23T21:12:49.681Z,100760.31
2022-08-23T21:17:55.724Z,100772.75
2022-08-23T21:23:06.680Z,100752.66
2022-08-23T21:28:07.724Z,100790.53
2022-08-23T21:33:08.326Z,100763.34
2022-08-23T21:38:07.073Z,100765.56
2022-08-23T21:43:06.575Z,100753.94
2022-08-23T21:48:05.810Z,100760.13
2022-08-23T21:53:07.889Z,100759.31
2022-08-23T21:58:06.108Z,100726.66
2022-08-23T22:03:05.960Z,100743.31
2022-08-23T22:08:04.348Z,100743.34
2022-08-23T22:13:05.502Z,100763.41
2022-08-23T22:18:07.740Z,100755.38
2022-08-23T22:23:06.435Z,100761.75
2022-08-23T22:28:04.190Z,100741.66
2022-08-23T22:33:03.355Z,100762.22
2022-08-23T22:38:17.734Z,100719.00
2022-08-23T22:43:19.239Z,100727.78
2022-08-23T22:48:21.908Z,100718.97
2022-08-23T22:53:21.197Z,100761.19
2022-08-23T22:58:19.780Z,100746.28
2022-08-23T23:03:20.587Z,100718.78
2022-08-23T23:08:29.818Z,100757.78
2022-08-23T23:13:31.663Z,100769.03
2022-08-23T23:18:33.609Z,100796.47
2022-08-23T23:23:32.388Z,100795.72
2022-08-23T23:28:30.526Z,100814.19
2022-08-23T23:33:28.163Z,100859.84
2022-08-23T23:38:26.812Z,100849.78
2022-08-23T23:43:24.308Z,100852.19
2022-08-23T23:48:24.605Z,100863.09
2022-08-23T23:53:22.220Z,100883.28
2022-08-23T23:58:28.186Z,100889.72
